createdAt,value
2022-10-14T00:03:52.980Z,13.99
2022-10-14T00:07:55.265Z,14.01
2022-10-14T00:11:57.279Z,14.02
2022-10-14T00:15:59.516Z,14.00
2022-10-14T00:20:03.819Z,13.99
2022-10-14T00:24:06.679Z,14.01
2022-10-14T00:28:08.702Z,14.05
2022-10-14T00:32:10.754Z,14.07
2022-10-14T00:36:14.977Z,14.06
2022-10-14T00:40:17.123Z,14.07
2022-10-14T00:44:20.821Z,14.08
2022-10-14T00:48:25.455Z,14.09
2022-10-14T00:52:30.688Z,14.08
2022-10-14T00:56:34.886Z,14.08
2022-10-14T01:00:39.405Z,14.07
2022-10-14T01:04:43.034Z,14.06
2022-10-14T01:09:02.026Z,14.05
2022-10-14T01:13:29.094Z,14.04
2022-10-14T01:17:57.185Z,14.04
2022-10-14T01:22:25.214Z,14.02
2022-10-14T01:27:10.618Z,14.03
2022-10-14T01:31:27.716Z,13.98
2022-10-14T01:36:03.023Z,13.98
2022-10-14T01:40:17.486Z,13.88
2022-10-14T01:44:22.888Z,13.81
2022-10-14T01:48:31.110Z,13.81
2022-10-14T01:52:40.275Z,13.80
2022-10-14T01:56:46.832Z,13.82
2022-10-14T02:00:49.673Z,13.82
2022-10-14T02:04:52.295Z,13.81
2022-10-14T02:09:17.801Z,13.85
2022-10-14T02:13:44.128Z,13.87
2022-10-14T02:18:23.770Z,13.87
2022-10-14T02:22:35.450Z,13.85
2022-10-14T02:26:39.326Z,13.86
2022-10-14T02:30:48.704Z,13.84
2022-10-14T02:34:57.425Z,13.83
2022-10-14T02:39:01.263Z,13.82
2022-10-14T02:43:07.965Z,13.83
2022-10-14T02:47:09.939Z,13.80
2022-10-14T02:51:12.051Z,13.74
2022-10-14T02:55:14.110Z,13.72
2022-10-14T02:59:25.785Z,13.71
2022-10-14T03:03:27.921Z,13.70
2022-10-14T03:07:30.715Z,13.71
2022-10-14T03:11:36.821Z,13.71
2022-10-14T03:15:42.577Z,13.68
2022-10-14T03:19:46.457Z,13.68
2022-10-14T03:23:50.637Z,13.70
2022-10-14T03:27:57.826Z,13.72
2022-10-14T03:32:11.881Z,13.70
2022-10-14T03:36:32.342Z,13.67
2022-10-14T03:40:34.428Z,13.65
2022-10-14T03:44:38.304Z,13.62
2022-10-14T03:49:06.215Z,13.60
2022-10-14T03:53:08.509Z,13.60
2022-10-14T03:57:12.098Z,13.58
2022-10-14T04:01:20.791Z,13.57
2022-10-14T04:05:39.793Z,13.59
2022-10-14T04:09:52.645Z,13.57
2022-10-14T04:13:58.307Z,13.58
2022-10-14T04:18:00.989Z,13.56
2022-10-14T04:22:03.853Z,13.50
2022-10-14T04:26:09.435Z,13.50
2022-10-14T04:30:13.264Z,13.49
2022-10-14T04:34:25.363Z,13.52
2022-10-14T04:38:28.735Z,13.52
2022-10-14T04:42:36.636Z,13.53
2022-10-14T04:46:41.941Z,13.54
2022-10-14T04:50:44.083Z,13.55
2022-10-14T04:55:04.561Z,13.55
2022-10-14T04:59:16.997Z,13.58
2022-10-14T05:03:45.497Z,13.59
2022-10-14T05:07:47.640Z,13.60
2022-10-14T05:11:58.320Z,13.63
2022-10-14T05:16:10.062Z,13.66
2022-10-14T05:20:13.532Z,13.71
2022-10-14T05:24:17.353Z,13.73
2022-10-14T05:28:21.265Z,13.74
2022-10-14T05:32:25.116Z,13.78
2022-10-14T05:36:34.526Z,13.79
2022-10-14T05:40:37.205Z,13.79
2022-10-14T05:44:39.451Z,13.84
2022-10-14T05:48:41.656Z,13.88
2022-10-14T05:52:44.476Z,13.86
2022-10-14T05:56:55.383Z,13.88
2022-10-14T06:01:02.603Z,14.05
2022-10-14T06:05:05.175Z,14.06
2022-10-14T06:09:11.169Z,14.04
2022-10-14T06:13:14.249Z,13.99
2022-10-14T06:17:20.066Z,13.99
2022-10-14T06:21:22.461Z,13.97
2022-10-14T06:25:24.727Z,13.99
2022-10-14T06:29:31.175Z,14.01
2022-10-14T06:33:34.428Z,14.03
2022-10-14T06:37:36.505Z,14.03
2022-10-14T06:41:38.592Z,14.06
2022-10-14T06:45:40.693Z,14.08
2022-10-14T06:49:42.734Z,14.08
2022-10-14T06:53:45.083Z,14.09
2022-10-14T06:57:47.089Z,14.16
2022-10-14T07:01:49.173Z,14.21
2022-10-14T07:05:51.727Z,14.25
2022-10-14T07:09:54.099Z,14.27
2022-10-14T07:13:57.455Z,14.27
2022-10-14T07:17:59.474Z,14.24
2022-10-14T07:22:01.574Z,14.24
2022-10-14T07:26:03.683Z,14.24
2022-10-14T07:30:06.684Z,14.31
2022-10-14T07:34:09.194Z,14.45
2022-10-14T07:38:11.233Z,14.60
2022-10-14T07:42:13.309Z,14.68
2022-10-14T07:46:17.777Z,14.72
2022-10-14T07:50:20.065Z,14.67
2022-10-14T07:54:24.524Z,14.62
2022-10-14T07:58:29.242Z,14.59
2022-10-14T08:02:31.256Z,14.57
2022-10-14T08:06:33.325Z,14.57
2022-10-14T08:10:35.830Z,14.55
2022-10-14T08:14:37.880Z,14.49
2022-10-14T08:18:40.444Z,14.45
2022-10-14T08:22:42.424Z,14.47
2022-10-14T08:26:56.978Z,14.51
2022-10-14T08:30:59.003Z,14.56
2022-10-14T08:35:01.062Z,14.65
2022-10-14T08:39:04.653Z,14.70
2022-10-14T08:43:24.056Z,14.76
2022-10-14T08:47:36.147Z,14.73
2022-10-14T08:51:40.914Z,14.64
2022-10-14T08:55:56.158Z,14.54
2022-10-14T08:59:58.197Z,14.53
2022-10-14T09:04:06.907Z,14.61
2022-10-14T09:08:15.375Z,14.69
2022-10-14T09:12:21.950Z,14.78
2022-10-14T09:16:27.613Z,14.83
2022-10-14T09:20:29.664Z,14.78
2022-10-14T09:24:37.527Z,14.75
2022-10-14T09:28:44.043Z,14.77
2022-10-14T09:32:55.916Z,14.79
2022-10-14T09:37:10.519Z,14.82
2022-10-14T09:41:15.782Z,14.83
2022-10-14T09:45:20.353Z,14.91
2022-10-14T09:49:35.130Z,14.98
2022-10-14T09:53:42.109Z,15.02
2022-10-14T09:57:44.556Z,14.98
2022-10-14T10:01:50.587Z,14.97
2022-10-14T10:06:03.286Z,15.02
2022-10-14T10:10:31.962Z,15.12
2022-10-14T10:14:34.146Z,15.28
2022-10-14T10:18:36.177Z,15.37
2022-10-14T10:22:39.227Z,15.37
2022-10-14T10:26:41.228Z,15.40
2022-10-14T10:31:21.612Z,15.43
2022-10-14T10:35:37.486Z,15.46
2022-10-14T10:40:04.646Z,15.46
2022-10-14T10:44:32.009Z,15.44
2022-10-14T10:48:47.336Z,15.46
2022-10-14T10:53:01.437Z,15.38
2022-10-14T10:57:12.770Z,15.33
2022-10-14T11:01:36.437Z,15.30
2022-10-14T11:05:52.356Z,15.37
2022-10-14T11:10:28.518Z,15.50
2022-10-14T11:15:02.905Z,15.56
2022-10-14T11:19:18.388Z,15.60
2022-10-14T11:24:00.030Z,15.65
2022-10-14T11:28:14.359Z,15.59
2022-10-14T11:32:28.433Z,15.54
2022-10-14T11:37:04.699Z,15.53
2022-10-14T11:41:18.459Z,15.57
2022-10-14T11:45:52.498Z,15.61
2022-10-14T11:50:02.734Z,15.61
2022-10-14T11:54:25.346Z,15.58
2022-10-14T11:58:31.160Z,15.49
2022-10-14T12:02:36.121Z,15.46
2022-10-14T12:07:05.311Z,15.44
2022-10-14T12:11:15.847Z,15.41
2022-10-14T12:15:22.252Z,15.32
2022-10-14T12:19:29.441Z,15.29
2022-10-14T12:23:41.660Z,15.26
2022-10-14T12:27:44.348Z,15.23
2022-10-14T12:32:05.263Z,15.27
2022-10-14T12:36:30.856Z,15.35
2022-10-14T12:40:33.681Z,15.34
2022-10-14T12:44:48.089Z,15.37
2022-10-14T12:48:51.758Z,15.31
2022-10-14T12:53:07.035Z,15.20
2022-10-14T12:57:42.580Z,15.11
2022-10-14T13:01:44.704Z,15.12
2022-10-14T13:05:47.940Z,15.12
2022-10-14T13:09:57.740Z,15.11
2022-10-14T13:14:02.193Z,15.13
2022-10-14T13:18:33.201Z,15.16
2022-10-14T13:22:38.354Z,15.16
2022-10-14T13:26:47.601Z,15.14
2022-10-14T13:30:58.956Z,15.11
2022-10-14T13:35:21.870Z,15.11
2022-10-14T13:39:24.271Z,15.12
2022-10-14T13:43:37.716Z,15.10
2022-10-14T13:47:49.072Z,15.09
2022-10-14T13:51:59.215Z,15.13
2022-10-14T13:56:01.224Z,15.14
2022-10-14T14:00:40.098Z,15.18
2022-10-14T14:04:51.796Z,15.23
2022-10-14T14:09:02.842Z,15.21
2022-10-14T14:13:05.297Z,15.26
2022-10-14T14:17:15.541Z,15.29
2022-10-14T14:21:19.932Z,15.26
2022-10-14T14:25:35.034Z,15.22
2022-10-14T14:29:43.428Z,15.20
2022-10-14T14:33:46.500Z,15.17
2022-10-14T14:37:59.192Z,15.17
2022-10-14T14:42:02.001Z,15.20
2022-10-14T14:46:05.760Z,15.24
2022-10-14T14:50:29.553Z,15.28
2022-10-14T14:54:32.403Z,15.32
2022-10-14T14:58:37.426Z,15.35
2022-10-14T15:02:41.635Z,15.32
2022-10-14T15:07:21.010Z,15.32
2022-10-14T15:11:23.854Z,15.31
2022-10-14T15:15:30.361Z,15.28
2022-10-14T15:19:38.381Z,15.28
2022-10-14T15:23:41.145Z,15.29
2022-10-14T15:27:48.517Z,15.26
2022-10-14T15:32:11.437Z,15.24
2022-10-14T15:36:14.181Z,15.21
2022-10-14T15:40:19.524Z,15.21
2022-10-14T15:44:21.530Z,15.19
2022-10-14T15:48:23.602Z,15.18
2022-10-14T15:52:26.969Z,15.20
2022-10-14T15:56:29.761Z,15.18
2022-10-14T16:00:33.489Z,15.24
2022-10-14T16:04:39.290Z,15.25
2022-10-14T16:08:47.524Z,15.24
2022-10-14T16:12:51.069Z,15.27
2022-10-14T16:16:53.765Z,15.28
2022-10-14T16:20:55.963Z,15.27
2022-10-14T16:24:57.970Z,15.25
2022-10-14T16:29:00.565Z,15.25
2022-10-14T16:33:04.098Z,15.27
2022-10-14T16:37:07.124Z,15.27
2022-10-14T16:41:10.448Z,15.28
2022-10-14T16:45:12.966Z,15.24
2022-10-14T16:49:15.000Z,15.22
2022-10-14T16:53:36.051Z,15.23
2022-10-14T16:57:38.064Z,15.22
2022-10-14T17:01:40.245Z,15.22
2022-10-14T17:05:47.153Z,15.24
2022-10-14T17:09:49.151Z,15.22
2022-10-14T17:13:52.508Z,15.21
2022-10-14T17:17:54.473Z,15.19
2022-10-14T17:21:56.720Z,15.20
2022-10-14T17:25:58.724Z,15.20
2022-10-14T17:30:00.749Z,15.22
2022-10-14T17:34:02.778Z,15.19
2022-10-14T17:38:04.745Z,15.18
2022-10-14T17:42:06.730Z,15.17
2022-10-14T17:46:13.550Z,15.18
2022-10-14T17:50:15.630Z,15.16
2022-10-14T17:54:17.603Z,15.14
2022-10-14T17:58:19.677Z,15.14
2022-10-14T18:02:22.112Z,15.12
2022-10-14T18:06:29.496Z,15.13
2022-10-14T18:10:31.542Z,15.13
2022-10-14T18:14:34.007Z,15.13
2022-10-14T18:18:36.275Z,15.19
2022-10-14T18:22:38.378Z,15.20
2022-10-14T18:26:40.953Z,15.22
2022-10-14T18:30:42.953Z,15.22
2022-10-14T18:34:45.116Z,15.25
2022-10-14T18:38:52.575Z,15.25
2022-10-14T18:42:57.980Z,15.25
2022-10-14T18:47:00.237Z,15.26
2022-10-14T18:51:04.003Z,15.25
2022-10-14T18:55:06.632Z,15.23
2022-10-14T18:59:14.213Z,15.23
2022-10-14T19:03:16.541Z,15.24
2022-10-14T19:07:18.534Z,15.24
2022-10-14T19:11:23.476Z,15.22
2022-10-14T19:15:26.409Z,15.20
2022-10-14T19:19:28.457Z,15.21
2022-10-14T19:23:30.517Z,15.23
2022-10-14T19:27:32.590Z,15.24
2022-10-14T19:31:36.115Z,15.27
2022-10-14T19:35:38.367Z,15.27
2022-10-14T19:39:40.383Z,15.27
2022-10-14T19:43:42.381Z,15.28
2022-10-14T19:47:44.404Z,15.31
2022-10-14T19:51:46.477Z,15.33
2022-10-14T19:55:48.468Z,15.33
2022-10-14T19:59:50.448Z,15.30
2022-10-14T20:03:53.369Z,15.30
2022-10-14T20:07:55.388Z,15.29
2022-10-14T20:11:57.435Z,15.32
2022-10-14T20:16:01.665Z,15.32
2022-10-14T20:20:04.106Z,15.33
2022-10-14T20:24:06.306Z,15.33
2022-10-14T20:28:08.834Z,15.33
2022-10-14T20:32:10.918Z,15.35
2022-10-14T20:36:20.991Z,15.34
2022-10-14T20:40:22.986Z,15.31
2022-10-14T20:44:25.274Z,15.29
2022-10-14T20:48:27.271Z,15.26
2022-10-14T20:52:29.291Z,15.22
2022-10-14T20:56:32.912Z,15.23
2022-10-14T21:00:34.992Z,15.22
2022-10-14T21:04:37.044Z,15.23
2022-10-14T21:08:39.648Z,15.23
2022-10-14T21:12:45.278Z,15.21
2022-10-14T21:16:50.735Z,15.21
2022-10-14T21:24:59.905Z,15.19
2022-10-14T21:29:02.597Z,15.19
2022-10-14T21:33:04.718Z,15.20
2022-10-14T21:37:06.809Z,15.18
2022-10-14T21:41:09.208Z,15.17
2022-10-14T21:45:11.208Z,15.12
2022-10-14T21:49:13.782Z,15.14
2022-10-14T21:53:16.231Z,15.11
2022-10-14T21:57:18.484Z,15.12
2022-10-14T22:01:23.243Z,15.12
2022-10-14T22:05:25.327Z,15.13
2022-10-14T22:09:27.407Z,15.10
2022-10-14T22:13:30.184Z,15.06
2022-10-14T22:17:32.210Z,15.03
2022-10-14T22:21:36.586Z,15.01
2022-10-14T22:25:38.592Z,15.03
2022-10-14T22:29:40.686Z,15.01
2022-10-14T22:33:43.454Z,15.02
2022-10-14T22:37:45.512Z,15.02
2022-10-14T22:41:47.584Z,15.02
2022-10-14T22:45:49.619Z,14.98
2022-10-14T22:49:51.633Z,14.96
2022-10-14T22:53:54.120Z,14.94
2022-10-14T22:57:56.135Z,14.93
2022-10-14T23:01:58.104Z,14.94
2022-10-14T23:06:06.023Z,14.90
2022-10-14T23:10:08.369Z,14.90
2022-10-14T23:14:10.340Z,14.93
2022-10-14T23:18:12.322Z,14.97
2022-10-14T23:22:14.301Z,14.97
2022-10-14T23:26:21.257Z,14.98
2022-10-14T23:30:23.435Z,14.95
2022-10-14T23:34:25.616Z,14.94
2022-10-14T23:38:27.651Z,14.94
2022-10-14T23:42:29.631Z,14.95
2022-10-14T23:46:31.652Z,14.94
2022-10-14T23:50:33.664Z,14.93
2022-10-14T23:54:35.692Z,14.94
2022-10-14T23:58:37.702Z,14.93
